createdAt,value
2022-10-18T00:00:06.478Z,10.50
2022-10-18T00:02:33.775Z,10.50
2022-10-18T00:05:00.590Z,10.50
2022-10-18T00:07:27.443Z,10.40
2022-10-18T00:09:54.247Z,10.40
2022-10-18T00:12:21.018Z,10.40
2022-10-18T00:14:51.132Z,10.60
2022-10-18T00:17:17.926Z,10.50
2022-10-18T00:19:45.112Z,10.50
2022-10-18T00:22:11.911Z,10.50
2022-10-18T00:24:38.687Z,10.60
2022-10-18T00:27:05.466Z,10.60
2022-10-18T00:29:32.186Z,10.60
2022-10-18T00:31:58.933Z,10.60
2022-10-18T00:34:25.686Z,10.70
2022-10-18T00:36:52.542Z,10.60
2022-10-18T00:39:21.262Z,10.60
2022-10-18T00:41:48.986Z,10.60
2022-10-18T00:44:15.719Z,10.80
2022-10-18T00:46:48.872Z,10.70
2022-10-18T00:49:35.532Z,10.70
2022-10-18T00:52:11.040Z,10.60
2022-10-18T00:54:41.185Z,10.70
2022-10-18T00:57:08.391Z,10.70
2022-10-18T00:59:36.033Z,10.70
2022-10-18T01:02:03.511Z,10.70
2022-10-18T01:04:30.387Z,10.60
2022-10-18T01:07:13.106Z,10.60
2022-10-18T01:10:13.557Z,10.60
2022-10-18T01:13:16.250Z,10.60
2022-10-18T01:16:07.303Z,10.70
2022-10-18T01:18:44.286Z,10.60
2022-10-18T01:21:14.546Z,10.60
2022-10-18T01:24:05.461Z,10.60
2022-10-18T01:26:52.964Z,10.40
2022-10-18T01:29:49.507Z,10.40
2022-10-18T01:32:21.602Z,10.50
2022-10-18T01:34:49.966Z,10.50
2022-10-18T01:37:19.493Z,10.50
2022-10-18T01:39:50.805Z,10.50
2022-10-18T01:42:20.133Z,10.40
2022-10-18T01:44:50.512Z,10.30
2022-10-18T01:47:19.590Z,10.30
2022-10-18T01:49:46.565Z,10.20
2022-10-18T01:52:14.658Z,10.20
2022-10-18T01:54:46.007Z,10.10
2022-10-18T01:57:36.436Z,10.10
2022-10-18T02:00:17.174Z,10.00
2022-10-18T02:03:01.974Z,10.10
2022-10-18T02:05:32.081Z,10.10
2022-10-18T02:08:36.081Z,10.10
2022-10-18T02:11:10.775Z,10.10
2022-10-18T02:13:42.707Z,10.10
2022-10-18T02:16:40.710Z,10.30
2022-10-18T02:19:34.923Z,10.30
2022-10-18T02:22:02.662Z,10.30
2022-10-18T02:24:36.937Z,10.30
2022-10-18T02:27:04.482Z,10.30
2022-10-18T02:29:31.962Z,10.30
2022-10-18T02:32:04.836Z,10.20
2022-10-18T02:34:41.310Z,10.20
2022-10-18T02:37:09.214Z,10.20
2022-10-18T02:39:47.675Z,10.20
2022-10-18T02:42:15.789Z,10.20
2022-10-18T02:44:43.092Z,10.20
2022-10-18T02:47:11.184Z,10.20
2022-10-18T02:49:37.910Z,10.20
2022-10-18T02:52:04.679Z,10.20
2022-10-18T02:54:31.425Z,10.20
2022-10-18T02:56:58.198Z,10.20
2022-10-18T02:59:24.967Z,10.20
2022-10-18T03:01:51.755Z,10.10
2022-10-18T03:04:18.649Z,10.00
2022-10-18T03:06:45.389Z,9.90
2022-10-18T03:09:12.119Z,9.90
2022-10-18T03:11:38.931Z,9.90
2022-10-18T03:14:05.615Z,9.90
2022-10-18T03:16:34.064Z,10.00
2022-10-18T03:19:00.868Z,10.00
2022-10-18T03:21:27.618Z,9.90
2022-10-18T03:23:54.328Z,9.90
2022-10-18T03:26:21.600Z,9.90
2022-10-18T03:28:48.442Z,9.90
2022-10-18T03:31:15.267Z,10.10
2022-10-18T03:33:41.990Z,10.00
2022-10-18T03:36:08.781Z,10.10
2022-10-18T03:38:35.603Z,10.00
2022-10-18T03:41:02.346Z,10.10
2022-10-18T03:43:29.423Z,10.10
2022-10-18T03:45:56.136Z,10.00
2022-10-18T03:48:22.888Z,10.00
2022-10-18T03:50:49.632Z,10.00
2022-10-18T03:53:16.312Z,10.00
2022-10-18T03:55:43.254Z,10.00
2022-10-18T03:58:09.962Z,10.00
2022-10-18T04:00:36.660Z,10.00
2022-10-18T04:03:03.572Z,9.90
2022-10-18T04:05:31.288Z,9.90
2022-10-18T04:07:58.498Z,9.90
2022-10-18T04:10:25.862Z,9.80
2022-10-18T04:12:52.658Z,9.80
2022-10-18T04:15:19.967Z,9.70
2022-10-18T04:17:47.115Z,9.70
2022-10-18T04:20:13.825Z,9.60
2022-10-18T04:22:40.634Z,9.50
2022-10-18T04:25:07.681Z,9.50
2022-10-18T04:27:34.778Z,9.50
2022-10-18T04:30:01.668Z,9.40
2022-10-18T04:32:29.442Z,9.50
2022-10-18T04:34:56.210Z,9.50
2022-10-18T04:37:23.253Z,9.50
2022-10-18T04:39:53.457Z,9.40
2022-10-18T04:42:21.729Z,9.40
2022-10-18T04:44:49.057Z,9.40
2022-10-18T04:47:16.641Z,9.40
2022-10-18T04:49:43.543Z,9.40
2022-10-18T04:52:10.536Z,9.40
2022-10-18T04:54:37.709Z,9.40
2022-10-18T04:57:04.645Z,9.40
2022-10-18T04:59:31.339Z,9.40
2022-10-18T05:01:58.234Z,9.40
2022-10-18T05:04:25.082Z,9.40
2022-10-18T05:06:51.801Z,9.40
2022-10-18T05:09:18.536Z,9.50
2022-10-18T05:11:45.222Z,9.50
2022-10-18T05:14:11.936Z,9.40
2022-10-18T05:16:38.650Z,9.40
2022-10-18T05:19:05.765Z,9.40
2022-10-18T05:21:33.339Z,9.50
2022-10-18T05:24:00.244Z,9.40
2022-10-18T05:26:26.958Z,9.40
2022-10-18T05:28:53.824Z,9.40
2022-10-18T05:31:21.247Z,9.40
2022-10-18T05:33:48.118Z,9.40
2022-10-18T05:36:15.221Z,9.40
2022-10-18T05:38:42.870Z,9.40
2022-10-18T05:41:10.486Z,9.40
2022-10-18T05:43:37.498Z,9.50
2022-10-18T05:46:06.513Z,9.50
2022-10-18T05:48:36.018Z,9.40
2022-10-18T05:51:02.788Z,9.40
2022-10-18T05:53:36.636Z,9.40
2022-10-18T05:56:04.587Z,9.40
2022-10-18T05:58:31.331Z,9.40
2022-10-18T06:01:01.974Z,9.40
2022-10-18T06:03:30.533Z,9.40
2022-10-18T06:06:05.738Z,9.50
2022-10-18T06:08:33.225Z,9.50
2022-10-18T06:10:59.977Z,9.60
2022-10-18T06:13:27.173Z,9.70
2022-10-18T06:15:57.727Z,9.60
2022-10-18T06:18:24.660Z,9.60
2022-10-18T06:20:58.064Z,9.60
2022-10-18T06:23:25.021Z,9.70
2022-10-18T06:25:51.970Z,9.70
2022-10-18T06:28:18.860Z,9.70
2022-10-18T06:30:45.609Z,9.70
2022-10-18T06:33:12.326Z,9.80
2022-10-18T06:35:39.018Z,9.80
2022-10-18T06:38:06.252Z,9.90
2022-10-18T06:40:37.824Z,10.00
2022-10-18T06:43:20.011Z,10.10
2022-10-18T06:45:48.535Z,10.00
2022-10-18T06:48:16.174Z,10.00
2022-10-18T06:50:50.185Z,10.00
2022-10-18T06:53:16.943Z,10.10
2022-10-18T06:55:43.680Z,10.10
2022-10-18T06:58:10.366Z,10.10
2022-10-18T07:00:37.095Z,10.20
2022-10-18T07:03:03.866Z,10.20
2022-10-18T07:08:03.761Z,10.30
2022-10-18T07:10:30.462Z,10.40
2022-10-18T07:13:13.576Z,10.50
2022-10-18T07:15:43.875Z,10.50
2022-10-18T07:18:10.842Z,10.70
2022-10-18T07:20:37.590Z,10.80
2022-10-18T07:23:07.038Z,10.90
2022-10-18T07:25:34.090Z,11.00
2022-10-18T07:28:01.015Z,11.20
2022-10-18T07:30:27.766Z,11.20
2022-10-18T07:32:54.449Z,11.30
2022-10-18T07:35:21.153Z,11.30
2022-10-18T07:37:47.955Z,11.30
2022-10-18T07:40:14.727Z,11.30
2022-10-18T07:42:41.430Z,11.30
2022-10-18T07:45:08.631Z,11.40
2022-10-18T07:47:35.510Z,11.50
2022-10-18T07:50:02.275Z,11.50
2022-10-18T07:52:30.402Z,11.50
2022-10-18T07:54:57.089Z,11.60
2022-10-18T07:57:23.839Z,11.60
2022-10-18T07:59:56.277Z,11.60
2022-10-18T08:02:26.023Z,11.60
2022-10-18T08:04:52.705Z,11.70
2022-10-18T08:07:19.503Z,11.70
2022-10-18T08:09:46.225Z,11.80
2022-10-18T08:12:15.409Z,11.80
2022-10-18T08:14:42.492Z,11.80
2022-10-18T08:17:09.339Z,11.80
2022-10-18T08:19:36.094Z,11.80
2022-10-18T08:22:02.796Z,11.90
2022-10-18T08:24:29.661Z,12.00
2022-10-18T08:26:56.341Z,12.10
2022-10-18T08:29:25.858Z,12.10
2022-10-18T08:31:54.798Z,12.10
2022-10-18T08:34:21.625Z,12.10
2022-10-18T08:36:48.344Z,12.20
2022-10-18T08:39:15.046Z,12.40
2022-10-18T08:41:58.739Z,12.60
2022-10-18T08:44:31.798Z,12.80
2022-10-18T08:47:11.032Z,12.80
2022-10-18T08:49:44.207Z,12.90
2022-10-18T08:52:35.007Z,12.80
2022-10-18T08:55:10.149Z,12.80
2022-10-18T08:57:37.194Z,12.80
2022-10-18T09:00:24.675Z,12.70
2022-10-18T09:03:21.742Z,12.90
2022-10-18T09:06:03.994Z,13.20
2022-10-18T09:09:15.197Z,13.30
2022-10-18T09:11:57.993Z,13.60
2022-10-18T09:14:36.498Z,13.70
2022-10-18T09:17:15.955Z,13.80
2022-10-18T09:19:43.057Z,14.00
2022-10-18T09:22:14.333Z,14.10
2022-10-18T09:24:47.025Z,14.30
2022-10-18T09:27:22.339Z,14.40
2022-10-18T09:29:54.694Z,14.30
2022-10-18T09:32:21.410Z,14.30
2022-10-18T09:35:01.217Z,14.30
2022-10-18T09:37:32.546Z,14.20
2022-10-18T09:40:23.055Z,14.20
2022-10-18T09:43:01.289Z,14.20
2022-10-18T09:45:32.307Z,14.20
2022-10-18T09:48:08.603Z,14.30
2022-10-18T09:50:37.373Z,14.50
2022-10-18T09:53:40.447Z,14.80
2022-10-18T09:56:16.664Z,15.10
2022-10-18T09:58:49.182Z,15.30
2022-10-18T10:01:21.138Z,15.70
2022-10-18T10:03:47.926Z,15.90
2022-10-18T10:06:17.678Z,16.00
2022-10-18T10:08:48.970Z,16.10
2022-10-18T10:11:35.754Z,16.20
2022-10-18T10:14:09.337Z,16.40
2022-10-18T10:16:45.002Z,16.60
2022-10-18T10:19:18.375Z,16.80
2022-10-18T10:21:45.831Z,17.00
2022-10-18T10:24:28.960Z,17.10
2022-10-18T10:27:03.870Z,17.30
2022-10-18T10:29:45.681Z,17.30
2022-10-18T10:32:18.533Z,17.60
2022-10-18T10:34:45.576Z,17.70
2022-10-18T10:37:27.607Z,17.80
2022-10-18T10:40:21.252Z,18.00
2022-10-18T10:43:19.671Z,18.20
2022-10-18T10:46:02.522Z,18.30
2022-10-18T10:48:34.855Z,18.50
2022-10-18T10:51:10.160Z,18.70
2022-10-18T10:53:57.118Z,18.80
2022-10-18T10:56:33.283Z,19.10
2022-10-18T10:59:20.844Z,19.30
2022-10-18T11:01:50.086Z,19.40
2022-10-18T11:04:30.970Z,19.70
2022-10-18T11:07:21.514Z,19.90
2022-10-18T11:09:51.670Z,20.10
2022-10-18T11:12:39.998Z,20.30
2022-10-18T11:15:17.273Z,20.40
2022-10-18T11:18:21.140Z,20.70
2022-10-18T11:20:54.841Z,20.80
2022-10-18T11:23:27.701Z,20.70
2022-10-18T11:26:12.395Z,20.70
2022-10-18T11:29:06.945Z,20.90
2022-10-18T11:31:44.959Z,21.10
2022-10-18T11:34:24.744Z,21.30
2022-10-18T11:37:33.286Z,21.60
2022-10-18T11:40:22.876Z,21.70
2022-10-18T11:43:30.139Z,21.90
2022-10-18T11:46:18.299Z,22.20
2022-10-18T11:49:00.294Z,22.50
2022-10-18T11:52:09.377Z,22.60
2022-10-18T11:55:03.682Z,22.60
2022-10-18T11:57:36.626Z,22.60
2022-10-18T12:00:11.864Z,22.90
2022-10-18T12:02:57.064Z,23.10
2022-10-18T12:05:25.127Z,23.40
2022-10-18T12:08:09.670Z,23.80
2022-10-18T12:11:00.013Z,24.00
2022-10-18T12:13:36.766Z,24.20
2022-10-18T12:16:05.098Z,24.50
2022-10-18T12:18:32.893Z,24.00
2022-10-18T12:21:01.748Z,23.30
2022-10-18T12:23:52.511Z,22.90
2022-10-18T12:26:20.351Z,22.40
2022-10-18T12:29:02.770Z,21.90
2022-10-18T12:31:44.353Z,21.80
2022-10-18T12:34:21.162Z,21.50
2022-10-18T12:36:53.698Z,21.20
2022-10-18T12:39:38.740Z,21.00
2022-10-18T12:42:20.077Z,20.90
2022-10-18T12:44:47.749Z,20.90
2022-10-18T12:47:25.387Z,20.90
2022-10-18T12:49:58.059Z,21.00
2022-10-18T12:52:28.846Z,21.00
2022-10-18T12:55:04.613Z,20.90
2022-10-18T12:57:53.178Z,20.90
2022-10-18T13:00:32.337Z,21.00
2022-10-18T13:03:16.548Z,21.00
2022-10-18T13:05:54.945Z,20.80
2022-10-18T13:08:31.561Z,20.70
2022-10-18T13:11:10.362Z,20.60
2022-10-18T13:13:58.349Z,20.30
2022-10-18T13:16:35.435Z,19.90
2022-10-18T13:19:36.723Z,19.80
2022-10-18T13:22:27.076Z,19.70
2022-10-18T13:25:04.674Z,19.60
2022-10-18T13:27:40.070Z,19.50
2022-10-18T13:30:22.000Z,19.30
2022-10-18T13:33:16.998Z,19.20
2022-10-18T13:35:46.888Z,19.20
2022-10-18T13:38:49.610Z,19.20
2022-10-18T13:41:19.637Z,19.20
2022-10-18T13:43:57.736Z,19.10
2022-10-18T13:46:33.465Z,19.00
2022-10-18T13:49:20.059Z,19.00
2022-10-18T13:52:24.444Z,18.90
2022-10-18T13:55:09.357Z,18.80
2022-10-18T13:57:54.515Z,18.70
2022-10-18T14:00:21.167Z,18.60
2022-10-18T14:03:51.797Z,18.50
2022-10-18T14:06:22.514Z,18.30
2022-10-18T14:09:09.462Z,18.20
2022-10-18T14:12:14.675Z,18.00
2022-10-18T14:14:43.670Z,17.80
2022-10-18T14:17:28.278Z,17.70
2022-10-18T14:20:18.809Z,17.50
2022-10-18T14:22:56.233Z,17.50
2022-10-18T14:25:27.901Z,17.40
2022-10-18T14:28:15.444Z,17.40
2022-10-18T14:30:55.833Z,17.50
2022-10-18T14:33:39.006Z,17.50
2022-10-18T14:36:14.478Z,17.70
2022-10-18T14:38:54.837Z,18.00
2022-10-18T14:41:24.750Z,18.40
2022-10-18T14:43:53.200Z,18.60
2022-10-18T14:46:29.155Z,18.80
2022-10-18T14:49:00.298Z,18.50
2022-10-18T14:51:29.953Z,18.30
2022-10-18T14:53:56.821Z,18.10
2022-10-18T14:56:36.513Z,17.80
2022-10-18T14:59:09.971Z,17.70
2022-10-18T15:01:39.093Z,17.60
2022-10-18T15:04:10.579Z,17.40
2022-10-18T15:06:44.936Z,17.40
2022-10-18T15:09:14.499Z,17.30
2022-10-18T15:11:42.245Z,17.30
2022-10-18T15:14:14.581Z,17.30
2022-10-18T15:16:41.882Z,17.20
2022-10-18T15:19:36.041Z,17.20
2022-10-18T15:22:31.343Z,17.10
2022-10-18T15:25:16.382Z,17.10
2022-10-18T15:27:49.143Z,17.00
2022-10-18T15:30:18.896Z,17.00
2022-10-18T15:32:58.755Z,16.90
2022-10-18T15:35:33.879Z,16.80
2022-10-18T15:38:13.512Z,16.80
2022-10-18T15:40:41.455Z,16.80
2022-10-18T15:43:23.418Z,16.80
2022-10-18T15:46:05.336Z,16.90
2022-10-18T15:48:39.557Z,16.80
2022-10-18T15:51:27.958Z,16.80
2022-10-18T15:53:54.838Z,16.80
2022-10-18T15:56:40.224Z,16.80
2022-10-18T15:59:28.602Z,16.80
2022-10-18T16:01:55.446Z,16.80
2022-10-18T16:04:27.485Z,16.70
2022-10-18T16:06:55.945Z,16.70
2022-10-18T16:09:24.455Z,16.60
2022-10-18T16:11:55.749Z,16.70
2022-10-18T16:14:24.498Z,16.60
2022-10-18T16:16:54.679Z,16.60
2022-10-18T16:19:22.737Z,16.50
2022-10-18T16:21:50.960Z,16.30
2022-10-18T16:24:18.575Z,16.30
2022-10-18T16:26:45.846Z,16.20
2022-10-18T16:29:21.534Z,16.10
2022-10-18T16:31:50.746Z,16.00
2022-10-18T16:34:18.238Z,16.00
2022-10-18T16:36:45.674Z,15.90
2022-10-18T16:39:16.283Z,15.80
2022-10-18T16:41:43.734Z,15.60
2022-10-18T16:44:10.503Z,15.60
2022-10-18T16:46:38.346Z,15.50
2022-10-18T16:49:06.109Z,15.50
2022-10-18T16:51:33.396Z,15.40
2022-10-18T16:54:00.208Z,15.30
2022-10-18T16:56:28.091Z,15.20
2022-10-18T16:58:54.919Z,15.20
2022-10-18T17:01:23.486Z,15.10
2022-10-18T17:03:52.154Z,15.00
2022-10-18T17:06:25.093Z,15.00
2022-10-18T17:08:53.222Z,14.90
2022-10-18T17:11:21.797Z,14.80
2022-10-18T17:13:48.691Z,14.80
2022-10-18T17:16:21.327Z,14.80
2022-10-18T17:18:48.216Z,14.70
2022-10-18T17:21:15.043Z,14.60
2022-10-18T17:23:41.781Z,14.60
2022-10-18T17:26:28.471Z,14.60
2022-10-18T17:28:59.807Z,14.60
2022-10-18T17:31:27.760Z,14.60
2022-10-18T17:33:55.210Z,14.40
2022-10-18T17:36:22.441Z,14.40
2022-10-18T17:38:53.697Z,14.40
2022-10-18T17:41:20.980Z,14.40
2022-10-18T17:43:50.569Z,14.40
2022-10-18T17:46:18.006Z,14.40
2022-10-18T17:48:45.865Z,14.30
2022-10-18T17:51:16.785Z,14.30
2022-10-18T17:53:43.718Z,14.20
2022-10-18T17:56:11.596Z,14.10
2022-10-18T17:58:38.402Z,13.90
2022-10-18T18:01:17.548Z,13.90
2022-10-18T18:03:44.869Z,13.90
2022-10-18T18:06:19.799Z,13.80
2022-10-18T18:08:47.906Z,13.80
2022-10-18T18:11:15.724Z,13.80
2022-10-18T18:13:42.578Z,13.60
2022-10-18T18:16:21.698Z,13.50
2022-10-18T18:18:51.323Z,13.50
2022-10-18T18:21:18.820Z,13.40
2022-10-18T18:23:46.280Z,13.40
2022-10-18T18:26:16.748Z,13.30
2022-10-18T18:28:43.751Z,13.30
2022-10-18T18:31:16.364Z,13.30
2022-10-18T18:33:43.840Z,13.30
2022-10-18T18:36:11.789Z,13.30
2022-10-18T18:38:40.039Z,13.30
2022-10-18T18:41:10.633Z,13.30
2022-10-18T18:43:39.353Z,13.30
2022-10-18T18:46:07.027Z,13.30
2022-10-18T18:48:35.045Z,13.30
2022-10-18T18:51:03.761Z,13.30
2022-10-18T18:53:30.876Z,13.30
2022-10-18T18:56:02.644Z,13.30
2022-10-18T18:58:29.747Z,13.30
2022-10-18T19:00:56.697Z,13.30
2022-10-18T19:03:23.486Z,13.30
2022-10-18T19:05:50.396Z,13.20
2022-10-18T19:08:17.229Z,13.10
2022-10-18T19:10:48.888Z,13.20
2022-10-18T19:13:16.192Z,13.20
2022-10-18T19:15:43.039Z,13.20
2022-10-18T19:18:09.810Z,13.30
2022-10-18T19:20:36.651Z,13.30
2022-10-18T19:23:03.845Z,13.30
2022-10-18T19:25:30.639Z,13.30
2022-10-18T19:27:57.521Z,13.30
2022-10-18T19:30:24.566Z,13.20
2022-10-18T19:32:58.645Z,13.30
2022-10-18T19:35:28.479Z,13.20
2022-10-18T19:37:55.205Z,13.20
2022-10-18T19:40:22.275Z,13.20
2022-10-18T19:42:49.407Z,13.20
2022-10-18T19:45:16.311Z,13.10
2022-10-18T19:47:43.212Z,13.10
2022-10-18T19:50:10.148Z,13.10
2022-10-18T19:52:36.944Z,13.10
2022-10-18T19:55:04.833Z,13.20
2022-10-18T19:57:31.883Z,13.20
2022-10-18T20:00:00.741Z,13.20
2022-10-18T20:02:27.991Z,13.20
2022-10-18T20:07:36.413Z,13.30
2022-10-18T20:10:04.207Z,13.30
2022-10-18T20:12:31.374Z,13.30
2022-10-18T20:14:58.322Z,13.40
2022-10-18T20:17:25.064Z,13.40
2022-10-18T20:19:51.752Z,13.40
2022-10-18T20:22:18.461Z,13.40
2022-10-18T20:24:45.181Z,13.40
2022-10-18T20:27:11.889Z,13.40
2022-10-18T20:29:38.614Z,13.40
2022-10-18T20:32:05.486Z,13.40
2022-10-18T20:34:33.852Z,13.50
2022-10-18T20:37:02.874Z,13.50
2022-10-18T20:39:29.761Z,13.60
2022-10-18T20:41:56.465Z,13.50
2022-10-18T20:44:23.184Z,13.50
2022-10-18T20:46:49.963Z,13.50
2022-10-18T20:49:17.089Z,13.40
2022-10-18T20:51:44.148Z,13.40
2022-10-18T20:54:11.621Z,13.30
2022-10-18T20:56:39.281Z,13.20
2022-10-18T20:59:09.461Z,13.10
2022-10-18T21:01:37.630Z,13.10
2022-10-18T21:04:06.716Z,13.00
2022-10-18T21:06:36.989Z,12.90
2022-10-18T21:09:09.938Z,12.90
2022-10-18T21:11:39.550Z,12.90
2022-10-18T21:14:07.706Z,12.80
2022-10-18T21:16:35.837Z,12.80
2022-10-18T21:19:04.512Z,12.80
2022-10-18T21:21:31.789Z,12.70
2022-10-18T21:24:01.192Z,12.70
2022-10-18T21:26:30.705Z,12.70
2022-10-18T21:28:58.729Z,12.70
2022-10-18T21:31:30.466Z,12.70
2022-10-18T21:33:59.554Z,12.70
2022-10-18T21:36:30.310Z,12.70
2022-10-18T21:38:57.080Z,12.80
2022-10-18T21:41:24.036Z,12.80
2022-10-18T21:43:53.515Z,12.80
2022-10-18T21:46:23.430Z,12.90
2022-10-18T21:48:52.052Z,12.90
2022-10-18T21:51:21.057Z,12.90
2022-10-18T21:53:50.512Z,12.90
2022-10-18T21:56:20.496Z,12.90
2022-10-18T21:58:47.442Z,13.00
2022-10-18T22:01:25.348Z,13.10
2022-10-18T22:03:54.397Z,13.00
2022-10-18T22:06:21.918Z,13.00
2022-10-18T22:08:59.640Z,13.00
2022-10-18T22:11:30.263Z,13.00
2022-10-18T22:13:57.274Z,13.00
2022-10-18T22:16:24.505Z,13.00
2022-10-18T22:18:52.569Z,12.90
2022-10-18T22:21:20.529Z,12.80
2022-10-18T22:23:50.672Z,12.80
2022-10-18T22:26:32.993Z,12.80
2022-10-18T22:29:02.185Z,12.70
2022-10-18T22:31:32.765Z,12.60
2022-10-18T22:34:05.239Z,12.50
2022-10-18T22:36:32.781Z,12.50
2022-10-18T22:38:59.841Z,12.50
2022-10-18T22:41:26.731Z,12.50
2022-10-18T22:43:55.518Z,12.40
2022-10-18T22:46:24.444Z,12.40
2022-10-18T22:48:51.498Z,12.30
2022-10-18T22:51:18.297Z,12.30
2022-10-18T22:53:45.677Z,12.30
2022-10-18T22:56:16.056Z,12.20
2022-10-18T22:58:42.798Z,12.20
2022-10-18T23:01:12.294Z,12.20
2022-10-18T23:03:39.292Z,12.20
2022-10-18T23:06:17.846Z,12.20
2022-10-18T23:08:44.540Z,12.30
2022-10-18T23:11:11.237Z,12.30
2022-10-18T23:13:39.604Z,12.30
2022-10-18T23:16:07.035Z,12.30
2022-10-18T23:18:33.898Z,12.30
2022-10-18T23:21:03.078Z,12.30
2022-10-18T23:23:35.516Z,12.30
2022-10-18T23:26:14.013Z,12.40
2022-10-18T23:28:43.278Z,12.30
2022-10-18T23:31:15.154Z,12.30
2022-10-18T23:33:41.899Z,12.40
2022-10-18T23:36:09.101Z,12.40
2022-10-18T23:38:37.002Z,12.40
2022-10-18T23:41:08.089Z,12.40
2022-10-18T23:43:35.572Z,12.40
2022-10-18T23:46:02.562Z,12.40
2022-10-18T23:48:29.549Z,12.40
2022-10-18T23:50:56.488Z,12.30
2022-10-18T23:53:23.581Z,12.30
2022-10-18T23:55:57.690Z,12.30
2022-10-18T23:58:25.686Z,12.30
